Time;durP1;ratioP1;P1;durP2;ratioP2;P2;SDS_P1;SDS_P2;PMS_P1;PMS_P2;Temp;Humidity;BMP_temperature;BMP_pressure;BME280_temperature;BME280_humidity;BME280_pressure;Samples;Min_cycle;Max_cycle;Signal;HPM_P1;HPM_P2
2022/09/21 00:00:39;;;;;;;3.13;1.50;;;;;;;20.00;53.13;102752.50;5104223;27;20096;-79
2022/09/21 00:03:05;;;;;;;2.42;1.40;;;;;;;20.01;53.09;102756.88;5089834;27;20055;-79
2022/09/21 00:05:32;;;;;;;3.78;1.52;;;;;;;20.01;53.32;102753.38;5105560;27;20039;-80
2022/09/21 00:08:02;;;;;;;3.03;1.48;;;;;;;20.00;53.19;102757.72;5114283;27;20386;-80
2022/09/21 00:10:28;;;;;;;3.50;1.30;;;;;;;20.01;53.02;102755.97;5105619;27;20039;-79
2022/09/21 00:12:55;;;;;;;3.63;1.40;;;;;;;20.01;53.19;102749.03;5105287;27;20124;-79
2022/09/21 00:15:21;;;;;;;2.20;1.30;;;;;;;20.00;52.92;102751.63;5106084;27;20122;-79
2022/09/21 00:17:47;;;;;;;2.58;1.40;;;;;;;20.00;53.24;102749.00;5130537;27;20153;-79
2022/09/21 00:20:14;;;;;;;2.28;1.40;;;;;;;20.00;53.06;102754.25;5133080;27;20055;-79
2022/09/21 00:22:40;;;;;;;3.03;1.48;;;;;;;20.00;53.17;102754.25;5104006;27;20046;-79
2022/09/21 00:25:07;;;;;;;2.78;1.50;;;;;;;19.99;53.20;102747.25;5106242;27;20042;-78
2022/09/21 00:27:32;;;;;;;3.58;1.48;;;;;;;20.00;53.22;102751.63;5131283;27;20076;-81
2022/09/21 00:30:01;;;;;;;2.80;1.33;;;;;;;20.00;53.30;102751.63;5132448;27;20067;-80
2022/09/21 00:32:27;;;;;;;2.30;1.50;;;;;;;20.00;53.27;102751.63;5097120;27;20051;-79
2022/09/21 00:34:52;;;;;;;2.22;1.42;;;;;;;19.99;53.10;102753.38;5104573;27;20042;-79
2022/09/21 00:37:19;;;;;;;2.53;1.30;;;;;;;19.98;53.30;102751.59;5081905;28;20050;-79
2022/09/21 00:39:45;;;;;;;4.70;1.70;;;;;;;19.98;53.76;102751.59;5084675;27;20040;-78
2022/09/21 00:44:51;;;;;;;3.22;1.50;;;;;;;19.99;53.24;102749.84;5130648;27;20055;-79
2022/09/21 00:49:55;;;;;;;2.47;1.50;;;;;;;19.98;53.30;102753.34;5129595;27;20047;-80
2022/09/21 00:52:25;;;;;;;2.25;1.50;;;;;;;19.97;53.46;102751.56;5132491;27;20047;-82
2022/09/21 00:54:56;;;;;;;2.78;1.42;;;;;;;19.97;53.26;102749.88;5103259;27;20138;-79
2022/09/21 00:57:24;;;;;;;4.32;1.70;;;;;;;19.97;53.28;102755.09;5102108;28;20077;-79
2022/09/21 00:59:53;;;;;;;2.95;1.58;;;;;;;19.98;53.35;102759.44;5103088;27;20055;-80
2022/09/21 01:02:19;;;;;;;2.10;1.42;;;;;;;19.97;53.12;102757.69;5106430;28;20139;-79
2022/09/21 01:04:46;;;;;;;2.88;1.40;;;;;;;19.97;53.39;102755.09;5102092;27;20044;-80
2022/09/21 01:07:19;;;;;;;2.35;1.33;;;;;;;19.98;53.20;102753.34;5085582;28;20116;-79
2022/09/21 01:09:47;;;;;;;;;;;;;;;19.96;53.31;102748.09;5130026;27;20047;-79
2022/09/21 01:12:12;;;;;;;3.00;1.40;;;;;;;19.97;53.29;102748.97;5132320;27;19919;-79
2022/09/21 01:14:52;;;;;;;2.70;1.50;;;;;;;19.97;53.33;102755.09;5102995;27;20055;-79
2022/09/21 01:20:23;;;;;;;2.65;1.30;;;;;;;19.96;53.25;102755.06;5130212;27;20047;-79
2022/09/21 01:23:07;;;;;;;2.45;1.48;;;;;;;19.96;53.31;102755.06;5103130;27;20101;-79
2022/09/21 01:26:15;;;;;;;3.10;1.60;;;;;;;19.95;53.38;102754.19;5130307;27;20050;-79
2022/09/21 01:28:50;;;;;;;2.60;1.40;;;;;;;19.96;53.28;102761.16;5102313;27;20039;-79
2022/09/21 01:33:57;;;;;;;2.42;1.25;;;;;;;19.93;53.32;102748.94;5100750;28;20969;-78
2022/09/21 01:38:57;;;;;;;2.47;1.40;;;;;;;19.93;53.28;102746.31;5109136;28;20938;-79
2022/09/21 01:44:07;;;;;;;4.22;1.70;;;;;;;19.93;53.23;102743.72;5121064;27;20039;-80
2022/09/21 01:46:34;;;;;;;2.58;1.50;;;;;;;19.94;53.46;102750.69;5103090;27;20035;-80
2022/09/21 01:49:09;;;;;;;2.30;1.27;;;;;;;19.94;53.22;102747.19;5130840;27;20073;-81
2022/09/21 01:51:37;;;;;;;2.45;1.30;;;;;;;19.92;53.09;102744.59;5129305;27;20079;-79
2022/09/21 01:54:09;;;;;;;2.20;1.38;;;;;;;19.92;53.18;102746.31;5109449;28;20092;-79
2022/09/21 01:56:48;;;;;;;2.08;1.38;;;;;;;19.92;53.29;102741.97;5127107;27;20511;-81
2022/09/21 02:01:57;;;;;;;4.20;1.30;;;;;;;19.93;53.27;102748.06;5128997;27;20907;-79
2022/09/21 02:04:23;;;;;;;3.35;1.50;;;;;;;19.93;53.14;102748.06;5104763;28;20126;-79
2022/09/21 02:06:49;;;;;;;2.38;1.30;;;;;;;19.92;53.23;102746.31;5101750;27;20501;-79
2022/09/21 02:09:16;;;;;;;1.85;1.20;;;;;;;19.92;53.08;102744.59;5112797;27;20116;-79
2022/09/21 02:11:44;;;;;;;1.88;1.23;;;;;;;19.91;53.34;102748.03;5101818;27;20043;-79
2022/09/21 02:14:21;;;;;;;2.40;1.23;;;;;;;19.91;53.24;102755.88;5131195;27;20066;-79
2022/09/21 02:16:59;;;;;;;2.17;1.20;;;;;;;19.90;53.20;102746.31;5128897;27;20055;-81
2022/09/21 02:22:02;;;;;;;1.98;1.23;;;;;;;19.90;53.16;102758.47;5129084;27;20039;-80
2022/09/21 02:24:30;;;;;;;2.55;1.20;;;;;;;19.91;53.15;102760.25;5129833;27;20055;-80
2022/09/21 02:27:05;;;;;;;2.15;1.35;;;;;;;19.90;53.08;102751.53;5102827;27;20521;-79
2022/09/21 02:29:43;;;;;;;1.52;1.10;;;;;;;19.90;53.14;102758.47;5129214;27;20552;-79
2022/09/21 02:32:16;;;;;;;2.28;1.38;;;;;;;19.88;53.14;102753.25;5105788;28;20036;-79
2022/09/21 02:34:52;;;;;;;1.70;1.20;;;;;;;19.89;52.91;102754.13;5100416;27;20095;-80
2022/09/21 02:37:23;;;;;;;3.42;1.13;;;;;;;19.88;53.32;102753.25;5105404;28;20435;-79
2022/09/21 02:40:08;;;;;;;1.95;1.40;;;;;;;19.89;53.19;102759.34;5109407;28;20061;-79
2022/09/21 02:42:41;;;;;;;2.25;1.17;;;;;;;19.88;53.15;102750.63;5101875;27;20043;-80
2022/09/21 02:45:13;;;;;;;1.92;1.25;;;;;;;19.88;53.19;102753.25;5130569;27;20051;-79
2022/09/21 02:47:45;;;;;;;2.80;1.50;;;;;;;19.88;53.19;102753.25;5101596;28;20072;-79
2022/09/21 02:50:25;;;;;;;1.90;1.40;;;;;;;19.89;53.21;102743.66;5105586;28;20484;-79
2022/09/21 02:52:53;;;;;;;1.70;1.20;;;;;;;19.87;53.15;102746.25;5100943;28;20055;-79
2022/09/21 02:57:07;;;;;;;1.88;1.30;;;;;;;19.88;53.06;102741.91;5091072;28;20407;-80
2022/09/21 02:59:33;;;;;;;2.00;1.15;;;;;;;19.86;53.06;102743.63;5048108;28;20115;-81
2022/09/21 03:01:59;;;;;;;2.00;1.40;;;;;;;19.87;52.91;102740.16;5078428;28;20052;-79
2022/09/21 03:04:26;;;;;;;2.08;1.33;;;;;;;19.86;53.02;102741.00;5072241;28;20079;-80
2022/09/21 03:06:52;;;;;;;2.03;1.20;;;;;;;19.84;53.15;102742.75;5076204;28;20508;-80
2022/09/21 03:09:17;;;;;;;2.05;1.25;;;;;;;19.86;53.04;102749.75;5073859;28;20053;-80
2022/09/21 03:11:42;;;;;;;2.03;1.08;;;;;;;19.86;52.96;102748.84;5073920;28;20056;-80
2022/09/21 03:14:08;;;;;;;2.53;1.30;;;;;;;19.86;52.92;102748.84;5080512;28;20048;-80
2022/09/21 03:18:59;;;;;;;2.03;1.27;;;;;;;19.84;53.10;102751.47;5093590;28;20083;-83
2022/09/21 03:21:25;;;;;;;1.75;1.10;;;;;;;19.84;52.95;102756.69;5060270;28;20055;-82
2022/09/21 03:23:51;;;;;;;2.83;1.15;;;;;;;19.83;52.93;102748.81;5076827;28;20048;-82
2022/09/21 03:26:21;;;;;;;1.40;0.95;;;;;;;19.83;53.37;102747.06;5047358;28;20047;-83
2022/09/21 03:28:49;;;;;;;1.70;1.15;;;;;;;19.83;53.00;102746.22;5068214;28;20454;-80
2022/09/21 03:31:15;;;;;;;1.55;1.10;;;;;;;19.84;52.96;102743.63;5060294;28;20047;-79
2022/09/21 03:33:41;;;;;;;1.80;1.08;;;;;;;19.85;52.94;102752.34;5058915;28;20048;-79
2022/09/21 03:36:07;;;;;;;2.42;1.40;;;;;;;19.83;53.12;102752.31;5079540;28;20090;-79
2022/09/21 03:38:32;;;;;;;2.75;1.38;;;;;;;19.83;53.07;102748.81;5106653;28;20048;-80
2022/09/21 03:40:58;;;;;;;4.95;1.35;;;;;;;19.82;53.08;102742.72;5099946;28;20064;-80
2022/09/21 03:43:24;;;;;;;2.08;1.15;;;;;;;19.82;52.95;102758.41;5059533;28;20033;-79
2022/09/21 03:45:49;;;;;;;3.22;1.30;;;;;;;19.82;52.90;102757.53;5076066;28;20080;-79
2022/09/21 03:48:15;;;;;;;2.55;1.20;;;;;;;19.83;52.84;102754.03;5054346;28;20135;-87
2022/09/21 03:50:41;;;;;;;2.72;1.15;;;;;;;19.82;53.00;102762.75;5044546;28;20485;-87
2022/09/21 03:53:07;;;;;;;1.52;1.02;;;;;;;19.81;52.88;102761.00;5076152;28;20075;-87
2022/09/21 03:55:33;;;;;;;2.28;1.20;;;;;;;19.81;52.89;102763.59;5076324;28;20040;-88
2022/09/21 03:57:59;;;;;;;2.63;1.20;;;;;;;19.81;52.93;102763.59;5040489;28;20105;-88
2022/09/21 04:00:24;;;;;;;2.45;1.40;;;;;;;19.79;53.03;102760.97;5059614;28;20113;-88
2022/09/21 04:02:50;;;;;;;1.83;1.20;;;;;;;19.81;52.95;102761.00;5076240;28;20555;-86
2022/09/21 04:05:16;;;;;;;2.17;1.20;;;;;;;19.81;53.09;102763.59;5062473;28;20050;-87
2022/09/21 04:07:44;;;;;;;3.60;1.27;;;;;;;19.80;52.83;102765.34;5067815;28;20465;-86
2022/09/21 04:10:12;;;;;;;1.70;1.10;;;;;;;19.81;52.72;102758.38;5045961;28;20055;-87
2022/09/21 04:12:38;;;;;;;1.40;1.00;;;;;;;19.80;52.92;102761.84;5062450;28;20059;-87
2022/09/21 04:15:06;;;;;;;3.50;1.13;;;;;;;19.79;52.95;102755.72;5081888;28;20051;-87
2022/09/21 04:17:32;;;;;;;2.40;1.30;;;;;;;19.79;52.75;102757.47;5050196;28;20494;-88
2022/09/21 04:19:58;;;;;;;3.22;1.38;;;;;;;19.79;52.91;102757.47;5061386;28;20428;-88
2022/09/21 04:22:23;;;;;;;2.28;1.30;;;;;;;19.78;52.87;102756.59;5062736;28;20174;-88
2022/09/21 04:24:49;;;;;;;3.22;1.33;;;;;;;19.79;52.88;102757.47;5045941;28;20044;-87
2022/09/21 04:27:14;;;;;;;2.13;1.20;;;;;;;19.78;52.55;102751.38;5084432;28;20043;-86
2022/09/21 04:29:40;;;;;;;2.05;1.20;;;;;;;19.79;52.82;102757.47;5055476;28;20048;-87
2022/09/21 04:32:06;;;;;;;2.15;1.23;;;;;;;19.78;52.85;102758.34;5067067;28;20040;-87
2022/09/21 04:34:31;;;;;;;3.08;1.30;;;;;;;19.78;52.69;102761.84;5049617;28;20052;-88
2022/09/21 04:36:57;;;;;;;2.17;1.20;;;;;;;19.78;52.59;102764.44;5052230;28;20111;-87
2022/09/21 04:39:23;;;;;;;2.10;1.30;;;;;;;19.77;52.74;102760.06;5052534;28;20052;-87
2022/09/21 04:41:49;;;;;;;2.15;1.30;;;;;;;19.77;52.79;102760.06;5078659;28;20083;-89
2022/09/21 04:44:15;;;;;;;1.60;1.23;;;;;;;19.77;52.85;102757.44;5025867;28;20380;-88
2022/09/21 04:46:41;;;;;;;3.03;1.10;;;;;;;19.76;52.60;102760.06;5047164;28;20131;-88
2022/09/21 04:49:07;;;;;;;2.67;1.23;;;;;;;19.77;52.74;102749.63;5045380;28;20135;-89
2022/09/21 04:51:33;;;;;;;3.40;1.10;;;;;;;19.77;52.70;102760.06;5080419;28;20059;-88
2022/09/21 04:53:58;;;;;;;2.35;1.40;;;;;;;19.77;52.48;102751.34;5046863;28;20397;-88
2022/09/21 04:56:24;;;;;;;1.83;1.25;;;;;;;19.77;52.64;102756.59;5065406;28;20102;-88
2022/09/21 04:58:49;;;;;;;3.88;1.10;;;;;;;19.76;52.75;102754.84;5045007;28;20409;-87
2022/09/21 05:01:14;;;;;;;1.77;1.23;;;;;;;19.76;52.79;102753.09;5025546;28;20056;-88
2022/09/21 05:03:40;;;;;;;2.17;1.30;;;;;;;19.75;52.58;102746.13;5049287;28;20059;-89
2022/09/21 05:06:06;;;;;;;1.90;1.20;;;;;;;19.75;52.58;102753.06;5044592;28;20105;-88
2022/09/21 05:10:59;;;;;;;1.55;1.00;;;;;;;19.76;52.64;102757.44;5064011;28;20252;-88
2022/09/21 05:13:25;;;;;;;1.77;1.20;;;;;;;19.75;52.70;102758.28;5069759;28;20135;-87
2022/09/21 05:15:50;;;;;;;2.00;1.17;;;;;;;19.74;52.63;102765.25;5068252;28;20104;-85
2022/09/21 05:18:15;;;;;;;2.65;1.30;;;;;;;19.75;52.54;102763.53;5050890;28;20064;-88
2022/09/21 05:20:41;;;;;;;2.15;1.20;;;;;;;19.73;52.75;102767.00;5043899;28;20095;-81
2022/09/21 05:23:06;;;;;;;7.32;1.40;;;;;;;19.73;52.72;102772.22;5056531;28;20097;-84
2022/09/21 05:25:31;;;;;;;17.27;4.93;;;;;;;19.74;52.60;102775.72;5044650;28;20391;-83
2022/09/21 05:27:57;;;;;;;19.88;5.60;;;;;;;19.75;52.76;102763.53;5043025;28;20052;-82
2022/09/21 05:30:22;;;;;;;15.95;5.78;;;;;;;19.75;52.65;102774.88;5028312;28;20049;-86
2022/09/21 05:32:56;;;;;;;18.88;5.65;;;;;;;19.75;52.78;102771.34;5044275;28;20053;-86
2022/09/21 05:38:14;;;;;;;15.40;5.35;;;;;;;19.73;52.69;102774.84;5068947;28;20048;-85
2022/09/21 05:40:40;;;;;;;21.63;6.10;;;;;;;19.73;52.61;102769.63;5060173;28;20487;-85
2022/09/21 05:43:07;;;;;;;14.10;5.10;;;;;;;19.72;52.66;102775.69;5055399;28;20101;-83
2022/09/21 05:45:33;;;;;;;15.15;5.28;;;;;;;19.73;52.77;102772.22;5047958;28;20048;-84
2022/09/21 05:48:18;;;;;;;14.90;5.05;;;;;;;19.76;52.75;102775.75;5075608;28;20118;-87
2022/09/21 05:50:56;;;;;;;21.50;5.80;;;;;;;19.71;52.88;102776.56;5078560;28;20072;-81
2022/09/21 05:56:07;;;;;;;19.35;6.25;;;;;;;19.72;52.85;102773.06;5069336;28;20641;-86
2022/09/21 06:01:27;;;;;;;19.60;5.47;;;;;;;19.73;52.77;102776.59;5080665;28;20044;-85
2022/09/21 06:03:53;;;;;;;19.60;5.97;;;;;;;19.72;52.78;102777.44;5059851;28;20048;-85
2022/09/21 06:06:19;;;;;;;13.55;5.40;;;;;;;19.71;52.66;102776.56;5060961;28;20041;-87
2022/09/21 06:08:45;;;;;;;15.63;5.20;;;;;;;19.71;52.72;102778.31;5059600;28;20139;-87
2022/09/21 06:11:12;;;;;;;13.65;5.03;;;;;;;19.72;52.80;102780.03;5064098;28;20131;-87
2022/09/21 06:13:37;;;;;;;16.05;5.47;;;;;;;19.72;52.78;102780.03;5079985;28;20062;-87
2022/09/21 06:16:03;;;;;;;13.60;4.88;;;;;;;19.71;52.81;102771.34;5077612;28;20049;-87
2022/09/21 06:18:29;;;;;;;10.52;4.50;;;;;;;19.71;52.67;102775.69;5044258;28;20457;-87
2022/09/21 06:20:54;;;;;;;10.48;4.50;;;;;;;19.71;52.67;102778.31;5045197;28;21559;-87
2022/09/21 06:23:20;;;;;;;13.32;4.45;;;;;;;19.71;52.73;102783.53;5060947;28;20056;-87
2022/09/21 06:25:52;;;;;;;11.20;4.65;;;;;;;19.69;52.61;102783.50;5041824;28;20076;-87
2022/09/21 06:28:17;;;;;;;12.32;4.65;;;;;;;19.70;52.50;102790.47;5064795;28;20486;-87
2022/09/21 06:30:43;;;;;;;9.88;4.43;;;;;;;19.71;52.56;102783.53;5028992;28;20100;-86
2022/09/21 06:33:09;;;;;;;7.57;4.05;;;;;;;19.71;52.54;102784.41;5039924;28;20048;-87
2022/09/21 06:35:35;;;;;;;10.82;4.15;;;;;;;19.72;52.59;102783.53;5060500;28;20052;-85
2022/09/21 06:38:06;;;;;;;10.10;4.40;;;;;;;19.74;52.47;102783.56;5058701;28;20049;-86
2022/09/21 06:40:33;;;;;;;12.65;4.30;;;;;;;19.78;52.30;102781.88;5060586;28;20048;-87
2022/09/21 06:43:01;;;;;;;11.73;4.28;;;;;;;19.81;52.21;102780.16;5061595;28;20059;-87
2022/09/21 06:45:28;;;;;;;8.65;3.88;;;;;;;19.86;52.12;102778.47;5081869;28;20109;-87
2022/09/21 06:47:53;;;;;;;11.25;4.30;;;;;;;19.93;52.20;102782.03;5058995;28;20060;-87
2022/09/21 06:50:19;;;;;;;8.43;4.00;;;;;;;19.96;51.88;102782.06;5043395;28;20140;-85
2022/09/21 06:52:45;;;;;;;6.55;3.45;;;;;;;19.99;51.86;102786.44;5059113;28;20063;-85
2022/09/21 06:55:11;;;;;;;7.75;3.72;;;;;;;20.01;51.95;102784.72;5060040;28;20052;-87
2022/09/21 06:57:37;;;;;;;9.55;3.80;;;;;;;20.03;51.80;102785.63;5059497;28;20105;-86
2022/09/21 07:00:04;;;;;;;9.77;3.97;;;;;;;20.03;51.82;102781.25;5076870;28;20722;-86
2022/09/21 07:02:30;;;;;;;9.45;3.80;;;;;;;20.05;51.78;102786.53;5060428;28;20053;-87
2022/09/21 07:04:57;;;;;;;7.45;3.72;;;;;;;20.08;51.59;102786.56;5060544;28;20067;-86
2022/09/21 07:07:23;;;;;;;9.10;3.55;;;;;;;20.08;51.62;102787.44;5063385;28;20052;-85
2022/09/21 07:09:48;;;;;;;7.82;3.53;;;;;;;20.10;51.53;102790.06;5021593;28;1106288;-84
2022/09/21 07:12:14;;;;;;;5.90;3.42;;;;;;;20.08;51.64;102795.28;5043670;28;20135;-84
2022/09/21 07:14:39;;;;;;;6.28;3.45;;;;;;;20.10;51.55;102790.94;5059252;28;20143;-87
2022/09/21 07:17:05;;;;;;;7.50;3.47;;;;;;;20.11;51.45;102792.69;5042415;28;20135;-87
2022/09/21 07:19:30;;;;;;;8.07;3.72;;;;;;;20.12;51.60;102794.47;5059843;28;20413;-87
2022/09/21 07:21:56;;;;;;;7.15;3.53;;;;;;;20.15;51.47;102796.22;5041500;28;20064;-87
2022/09/21 07:24:21;;;;;;;7.07;3.65;;;;;;;20.16;51.38;102800.56;5023286;28;20051;-86
2022/09/21 07:26:48;;;;;;;6.55;2.88;;;;;;;20.17;51.37;102793.63;5024435;28;20112;-83
2022/09/21 07:29:13;;;;;;;8.95;3.30;;;;;;;20.20;51.38;102788.44;5066581;28;20048;-88
2022/09/21 07:31:43;;;;;;;10.20;4.13;;;;;;;20.23;50.97;102793.66;5030844;28;20048;-90
2022/09/21 07:34:09;;;;;;;8.27;3.63;;;;;;;20.24;51.16;102788.47;5059095;28;20098;-85
2022/09/21 07:39:00;;;;;;;7.90;3.22;;;;;;;20.21;51.16;102788.44;5067726;28;20134;-89
2022/09/21 07:41:25;;;;;;;5.88;3.05;;;;;;;20.19;51.31;102789.31;5022688;28;20049;-89
2022/09/21 07:43:52;;;;;;;7.13;3.03;;;;;;;20.16;51.40;102787.50;5028038;28;20056;-87
2022/09/21 07:46:17;;;;;;;5.45;2.92;;;;;;;20.17;51.34;102793.63;5047203;28;20048;-87
2022/09/21 07:48:43;;;;;;;6.57;3.08;;;;;;;20.17;51.29;102791.88;5043693;28;20052;-87
2022/09/21 07:51:11;;;;;;;5.45;3.20;;;;;;;20.17;51.21;102785.78;5066022;28;20581;-88
2022/09/21 07:53:38;;;;;;;6.45;3.15;;;;;;;20.17;51.28;102789.28;5082734;28;20059;-87
2022/09/21 07:56:07;;;;;;;7.03;3.10;;;;;;;20.16;51.45;102792.72;5061615;28;20094;-88
2022/09/21 08:01:05;;;;;;;5.28;2.70;;;;;;;20.17;51.28;102786.66;5065010;28;20059;-88
2022/09/21 08:03:30;;;;;;;5.43;2.50;;;;;;;20.23;51.21;102797.19;5063467;28;20139;-88
2022/09/21 08:05:58;;;;;;;4.78;2.58;;;;;;;20.26;51.30;102791.09;5044421;28;20052;-88
2022/09/21 08:08:24;;;;;;;6.47;3.25;;;;;;;20.27;51.17;102795.47;5046635;28;20064;-87
2022/09/21 08:10:51;;;;;;;5.68;2.78;;;;;;;20.28;51.18;102798.09;5046646;28;20063;-89
2022/09/21 08:13:17;;;;;;;6.55;2.88;;;;;;;20.29;51.64;102794.59;5083649;28;20048;-89
2022/09/21 08:15:42;;;;;;;6.97;2.92;;;;;;;20.30;51.35;102799.00;5081457;28;20044;-88
2022/09/21 08:18:08;;;;;;;6.57;2.92;;;;;;;20.31;50.99;102792.03;5029547;28;20444;-87
2022/09/21 08:20:33;;;;;;;5.13;2.70;;;;;;;20.31;51.37;102792.88;5029726;28;20504;-88
2022/09/21 08:22:59;;;;;;;7.45;2.90;;;;;;;20.31;51.06;102798.13;5063624;28;20451;-87
2022/09/21 08:25:24;;;;;;;6.38;2.80;;;;;;;20.33;50.98;102798.16;5048744;28;20033;-88
2022/09/21 08:27:50;;;;;;;5.82;2.90;;;;;;;20.32;50.93;102801.63;5063546;28;20048;-87
2022/09/21 08:30:15;;;;;;;4.90;2.50;;;;;;;20.28;50.80;102805.06;5027315;28;20194;-88
2022/09/21 08:32:40;;;;;;;6.28;2.80;;;;;;;20.21;50.08;102804.13;5077145;28;20068;-87
2022/09/21 08:35:07;;;;;;;5.82;2.63;;;;;;;20.22;50.31;102805.00;5057979;28;20111;-86
2022/09/21 08:37:34;;;;;;;4.90;2.50;;;;;;;20.27;49.88;102798.06;5083999;28;20139;-86
2022/09/21 08:40:01;;;;;;;7.55;2.50;;;;;;;20.20;47.03;102804.09;5063853;28;21134;-86
2022/09/21 08:45:05;;;;;;;6.03;2.25;;;;;;;19.99;47.73;102808.25;5086815;28;20048;-85
2022/09/21 08:50:02;;;;;;;5.72;2.00;;;;;;;19.99;48.06;102808.25;5087068;28;20048;-85
2022/09/21 08:52:27;;;;;;;6.15;2.35;;;;;;;20.02;48.06;102810.00;5080565;28;20107;-85
2022/09/21 08:55:04;;;;;;;5.95;2.03;;;;;;;20.02;48.33;102808.28;5062390;28;20127;-84
2022/09/21 08:57:32;;;;;;;5.85;2.00;;;;;;;20.03;48.28;102810.00;5084007;28;20059;-84
2022/09/21 08:59:59;;;;;;;6.55;2.35;;;;;;;20.03;48.39;102814.38;5063682;28;20505;-84
2022/09/21 09:05:02;;;;;;;6.28;2.00;;;;;;;20.02;48.57;102816.13;5081411;28;20112;-84
2022/09/21 09:07:34;;;;;;;5.68;1.95;;;;;;;20.03;48.61;102814.38;5061872;28;20091;-86
2022/09/21 09:10:18;;;;;;;4.80;2.20;;;;;;;20.03;48.69;102809.13;5060019;28;20139;-85
2022/09/21 09:13:18;;;;;;;6.45;2.28;;;;;;;20.01;48.58;102811.75;5060879;28;20491;-85
2022/09/21 09:15:50;;;;;;;6.00;2.20;;;;;;;20.01;48.46;102816.09;5079401;28;20101;-85
2022/09/21 09:18:27;;;;;;;5.35;2.00;;;;;;;20.00;48.53;102816.97;5080039;28;20036;-86
2022/09/21 09:21:00;;;;;;;4.68;1.80;;;;;;;19.99;48.56;102813.47;5080080;28;20074;-85
2022/09/21 09:23:27;;;;;;;5.80;2.15;;;;;;;19.99;48.53;102815.19;5076116;28;20063;-86
2022/09/21 09:26:05;;;;;;;5.63;1.83;;;;;;;19.99;48.79;102820.41;5077549;28;20048;-85
2022/09/21 09:31:20;;;;;;;3.53;1.80;;;;;;;19.99;48.52;102820.41;5080453;28;21601;-85
2022/09/21 09:34:08;;;;;;;4.88;1.60;;;;;;;19.98;48.32;102827.38;5079374;28;20464;-85
2022/09/21 09:39:11;;;;;;;3.53;1.52;;;;;;;19.98;48.44;102818.69;5080594;28;20044;-86
2022/09/21 09:41:46;;;;;;;2.70;1.55;;;;;;;19.98;48.55;102813.44;5060413;28;20060;-86
2022/09/21 09:44:19;;;;;;;3.42;1.60;;;;;;;19.98;48.54;102808.22;5077940;28;20071;-85
2022/09/21 09:47:06;;;;;;;7.25;1.75;;;;;;;19.96;48.49;102809.94;5078105;28;20029;-85
2022/09/21 09:49:35;;;;;;;4.93;1.60;;;;;;;19.96;48.48;102808.19;5064497;28;20402;-85
2022/09/21 09:52:02;;;;;;;4.60;1.50;;;;;;;19.94;48.34;102808.16;5034786;28;20048;-86
2022/09/21 09:54:32;;;;;;;3.45;1.60;;;;;;;19.97;48.51;102815.19;5078883;28;20083;-85
2022/09/21 09:56:58;;;;;;;4.55;1.50;;;;;;;19.97;48.44;102814.28;5080129;28;20052;-85
2022/09/21 09:59:29;;;;;;;3.92;1.75;;;;;;;19.97;48.40;102814.28;5081189;28;20486;-86
2022/09/21 10:02:06;;;;;;;3.90;1.40;;;;;;;19.96;48.71;102813.41;5058836;28;20080;-84
2022/09/21 10:04:33;;;;;;;4.25;1.85;;;;;;;20.00;48.56;102816.97;5070019;28;20061;-85
2022/09/21 10:06:59;;;;;;;3.83;1.60;;;;;;;20.03;48.49;102809.13;5079979;28;21744;-84
2022/09/21 10:09:30;;;;;;;6.30;1.70;;;;;;;20.04;48.31;102806.56;5080903;28;20063;-85
2022/09/21 10:12:02;;;;;;;4.80;1.48;;;;;;;20.04;48.48;102809.16;5058872;28;20702;-85
2022/09/21 10:14:33;;;;;;;3.27;1.50;;;;;;;20.05;48.86;102810.03;5078902;28;20073;-86
2022/09/21 10:17:06;;;;;;;4.47;1.70;;;;;;;20.05;48.76;102808.28;5079345;28;20078;-85
2022/09/21 10:19:32;;;;;;;4.00;1.70;;;;;;;20.05;48.92;102813.53;5064051;28;20028;-84
2022/09/21 10:22:01;;;;;;;3.78;1.45;;;;;;;20.05;48.80;102804.81;5059081;28;20068;-86
2022/09/21 10:27:12;;;;;;;2.70;1.20;;;;;;;20.05;48.97;102810.91;5080261;28;20631;-85
2022/09/21 10:29:38;;;;;;;2.65;1.48;;;;;;;20.06;48.84;102806.59;5059647;28;20072;-86
2022/09/21 10:32:11;;;;;;;4.18;1.30;;;;;;;20.06;48.90;102811.81;5059235;28;20094;-86
2022/09/21 10:34:37;;;;;;;4.05;1.42;;;;;;;20.07;49.07;102806.56;5060825;28;20127;-84
2022/09/21 10:37:25;;;;;;;3.30;1.27;;;;;;;20.08;49.12;102805.72;5080690;28;20055;-85
2022/09/21 10:39:50;;;;;;;3.65;1.50;;;;;;;20.08;49.05;102810.97;5058079;28;20454;-85
2022/09/21 10:42:18;;;;;;;5.22;1.40;;;;;;;20.09;49.17;102809.22;5078052;28;20080;-85
2022/09/21 10:45:04;;;;;;;3.20;1.30;;;;;;;20.10;49.29;102809.25;5042409;28;20376;-85
2022/09/21 10:50:03;;;;;;;3.78;1.50;;;;;;;20.10;49.14;102803.16;5079205;28;20051;-85
2022/09/21 10:55:00;;;;;;;5.20;1.42;;;;;;;20.10;49.29;102801.41;5079355;28;21172;-84
2022/09/21 10:57:28;;;;;;;2.45;1.17;;;;;;;20.11;49.26;102803.13;5063842;28;20142;-85
2022/09/21 10:59:56;;;;;;;3.00;1.20;;;;;;;20.12;49.31;102804.00;5079407;28;20040;-86
2022/09/21 11:02:28;;;;;;;3.80;1.20;;;;;;;20.13;49.20;102806.66;5081843;28;20081;-86
2022/09/21 11:05:02;;;;;;;3.33;1.38;;;;;;;20.13;49.32;102797.94;5060744;28;20107;-85
2022/09/21 11:07:34;;;;;;;2.92;1.20;;;;;;;20.13;49.41;102797.94;5082038;28;20523;-86
2022/09/21 11:10:09;;;;;;;2.67;1.20;;;;;;;20.13;49.23;102797.94;5076829;28;20117;-85
2022/09/21 11:15:34;;;;;;;2.17;1.10;;;;;;;20.13;49.20;102796.19;5071571;28;20052;-85
2022/09/21 11:18:12;;;;;;;2.35;1.05;;;;;;;20.13;49.16;102788.34;5076935;28;20048;-84
2022/09/21 11:20:48;;;;;;;2.33;1.17;;;;;;;20.14;49.24;102790.13;5063404;28;20421;-84
2022/09/21 11:26:32;;;;;;;3.42;1.15;;;;;;;20.16;49.23;102787.50;5128837;27;20416;-85
2022/09/21 11:29:07;;;;;;;2.25;1.10;;;;;;;20.15;49.22;102780.53;5126169;28;20115;-84
2022/09/21 11:31:33;;;;;;;3.72;1.13;;;;;;;20.16;49.32;102778.78;5128071;28;20115;-84
2022/09/21 11:34:30;;;;;;;2.17;1.10;;;;;;;20.17;49.42;102777.94;5125759;28;20562;-84
2022/09/21 11:37:30;;;;;;;1.98;1.00;;;;;;;20.17;49.42;102777.94;5124578;28;20100;-85
2022/09/21 11:40:11;;;;;;;2.13;1.00;;;;;;;20.19;49.29;102779.72;5107001;28;20096;-84
2022/09/21 11:45:34;;;;;;;2.22;1.00;;;;;;;20.19;49.45;102773.63;5125225;28;20071;-85
2022/09/21 11:48:18;;;;;;;3.45;1.20;;;;;;;20.19;49.34;102773.63;5107319;28;20047;-82
2022/09/21 11:53:39;;;;;;;1.95;0.93;;;;;;;20.20;49.48;102773.59;5117225;28;20066;-85
2022/09/21 11:56:44;;;;;;;2.83;0.95;;;;;;;20.18;49.54;102761.38;5125194;28;20044;-85
2022/09/21 11:59:38;;;;;;;2.83;0.90;;;;;;;20.20;49.54;102762.28;5107208;28;20047;-86
2022/09/21 12:02:04;;;;;;;1.98;1.00;;;;;;;20.19;49.57;102771.00;5125441;28;20052;-85
2022/09/21 12:07:35;;;;;;;3.28;1.00;;;;;;;20.19;49.52;102760.53;5125768;28;20047;-84
2022/09/21 12:10:13;;;;;;;2.25;0.90;;;;;;;20.19;49.56;102764.03;5125253;28;20051;-85
2022/09/21 12:15:27;;;;;;;1.50;0.80;;;;;;;20.16;49.53;102766.59;5125295;28;20942;-85
2022/09/21 12:18:11;;;;;;;2.55;1.00;;;;;;;20.17;49.74;102763.13;5106395;28;20073;-85
2022/09/21 12:23:19;;;;;;;2.45;1.10;;;;;;;20.17;49.64;102754.41;5116620;28;20127;-82
2022/09/21 12:25:50;;;;;;;1.75;0.80;;;;;;;20.17;49.64;102755.28;5107807;28;20068;-82
2022/09/21 12:28:36;;;;;;;1.73;0.88;;;;;;;20.19;49.62;102758.81;5126012;28;20062;-83
2022/09/21 12:31:11;;;;;;;1.88;0.90;;;;;;;20.19;49.64;102756.19;5124686;28;20489;-81
2022/09/21 12:36:17;;;;;;;2.55;0.90;;;;;;;20.20;49.69;102757.06;5110894;28;20651;-83
2022/09/21 12:41:30;;;;;;;2.33;0.80;;;;;;;20.18;49.51;102757.03;5111525;28;20047;-86
2022/09/21 12:44:13;;;;;;;2.20;0.93;;;;;;;20.18;49.19;102756.16;5091975;28;20051;-86
2022/09/21 12:49:22;;;;;;;2.42;1.00;;;;;;;20.15;49.28;102749.16;5111035;28;20862;-86
2022/09/21 12:51:56;;;;;;;2.78;0.95;;;;;;;20.12;49.14;102744.78;5093196;28;20497;-85
2022/09/21 12:54:24;;;;;;;2.58;1.00;;;;;;;20.10;48.42;102740.41;5112176;28;20126;-86
2022/09/21 12:56:55;;;;;;;2.72;0.90;;;;;;;20.09;47.24;102736.91;5093029;28;20493;-84
2022/09/21 12:59:37;;;;;;;1.73;0.85;;;;;;;20.10;47.68;102740.41;5094182;28;20105;-85
2022/09/21 13:02:33;;;;;;;2.25;1.00;;;;;;;20.09;46.91;102736.03;5092288;28;20044;-85
2022/09/21 13:05:15;;;;;;;3.33;0.90;;;;;;;20.08;47.53;102735.16;5110433;28;20047;-84